sensor_id;sensor_type;location;lat;lon;timestamp;P1;durP1;ratioP1;P2;durP2;ratioP2
66189;SDS011;52992;52.084;5.412;2023-05-07T00:01:36;46.47;;;43.53;;
66189;SDS011;52992;52.084;5.412;2023-05-07T00:04:03;46.83;;;44.20;;
66189;SDS011;52992;52.084;5.412;2023-05-07T00:06:31;46.67;;;44.17;;
66189;SDS011;52992;52.084;5.412;2023-05-07T00:08:59;47.13;;;44.53;;
66189;SDS011;52992;52.084;5.412;2023-05-07T00:11:27;47.17;;;44.57;;
66189;SDS011;52992;52.084;5.412;2023-05-07T00:13:54;48.87;;;45.93;;
66189;SDS011;52992;52.084;5.412;2023-05-07T00:16:21;47.60;;;44.57;;
66189;SDS011;52992;52.084;5.412;2023-05-07T00:18:48;48.03;;;45.23;;
66189;SDS011;52992;52.084;5.412;2023-05-07T00:21:15;46.80;;;44.10;;
66189;SDS011;52992;52.084;5.412;2023-05-07T00:23:42;49.03;;;46.13;;
66189;SDS011;52992;52.084;5.412;2023-05-07T00:26:09;45.03;;;42.30;;
66189;SDS011;52992;52.084;5.412;2023-05-07T00:28:36;47.00;;;44.13;;
66189;SDS011;52992;52.084;5.412;2023-05-07T00:31:03;46.87;;;44.27;;
66189;SDS011;52992;52.084;5.412;2023-05-07T00:33:30;47.23;;;44.53;;
66189;SDS011;52992;52.084;5.412;2023-05-07T00:35:57;47.43;;;44.70;;
66189;SDS011;52992;52.084;5.412;2023-05-07T00:38:24;47.50;;;44.87;;
66189;SDS011;52992;52.084;5.412;2023-05-07T00:40:51;46.87;;;44.27;;
66189;SDS011;52992;52.084;5.412;2023-05-07T00:43:18;47.63;;;44.77;;
66189;SDS011;52992;52.084;5.412;2023-05-07T00:45:45;46.67;;;44.07;;
66189;SDS011;52992;52.084;5.412;2023-05-07T00:48:12;46.27;;;43.57;;
66189;SDS011;52992;52.084;5.412;2023-05-07T00:50:40;46.70;;;43.90;;
66189;SDS011;52992;52.084;5.412;2023-05-07T00:53:07;48.80;;;45.87;;
66189;SDS011;52992;52.084;5.412;2023-05-07T00:55:35;50.97;;;47.67;;
66189;SDS011;52992;52.084;5.412;2023-05-07T00:58:03;48.07;;;45.47;;
66189;SDS011;52992;52.084;5.412;2023-05-07T01:00:29;48.83;;;46.13;;
66189;SDS011;52992;52.084;5.412;2023-05-07T01:02:56;49.67;;;46.83;;
66189;SDS011;52992;52.084;5.412;2023-05-07T01:05:24;49.73;;;47.03;;
66189;SDS011;52992;52.084;5.412;2023-05-07T01:07:53;49.67;;;46.73;;
66189;SDS011;52992;52.084;5.412;2023-05-07T01:10:21;50.13;;;47.33;;
66189;SDS011;52992;52.084;5.412;2023-05-07T01:12:49;47.20;;;44.60;;
66189;SDS011;52992;52.084;5.412;2023-05-07T01:15:17;48.83;;;45.97;;
66189;SDS011;52992;52.084;5.412;2023-05-07T01:17:45;49.37;;;46.47;;
66189;SDS011;52992;52.084;5.412;2023-05-07T01:20:22;45.30;;;42.73;;
66189;SDS011;52992;52.084;5.412;2023-05-07T01:22:51;45.83;;;43.33;;
66189;SDS011;52992;52.084;5.412;2023-05-07T01:25:19;44.43;;;42.07;;
66189;SDS011;52992;52.084;5.412;2023-05-07T01:27:50;47.70;;;45.03;;
66189;SDS011;52992;52.084;5.412;2023-05-07T01:30:20;45.07;;;42.37;;
66189;SDS011;52992;52.084;5.412;2023-05-07T01:32:53;44.47;;;41.97;;
66189;SDS011;52992;52.084;5.412;2023-05-07T01:35:27;43.03;;;40.73;;
66189;SDS011;52992;52.084;5.412;2023-05-07T01:37:58;42.73;;;40.03;;
66189;SDS011;52992;52.084;5.412;2023-05-07T01:40:26;44.47;;;41.97;;
66189;SDS011;52992;52.084;5.412;2023-05-07T01:42:53;46.07;;;43.40;;
66189;SDS011;52992;52.084;5.412;2023-05-07T01:45:21;46.83;;;44.23;;
66189;SDS011;52992;52.084;5.412;2023-05-07T01:47:49;46.20;;;43.60;;
66189;SDS011;52992;52.084;5.412;2023-05-07T01:50:16;52.30;;;49.40;;
66189;SDS011;52992;52.084;5.412;2023-05-07T01:52:45;47.03;;;44.33;;
66189;SDS011;52992;52.084;5.412;2023-05-07T01:55:13;51.97;;;49.07;;
66189;SDS011;52992;52.084;5.412;2023-05-07T01:57:40;50.90;;;48.10;;
66189;SDS011;52992;52.084;5.412;2023-05-07T02:00:07;51.53;;;48.83;;
66189;SDS011;52992;52.084;5.412;2023-05-07T02:02:41;50.80;;;48.10;;
66189;SDS011;52992;52.084;5.412;2023-05-07T02:05:19;50.97;;;48.20;;
66189;SDS011;52992;52.084;5.412;2023-05-07T02:07:52;52.70;;;49.70;;
66189;SDS011;52992;52.084;5.412;2023-05-07T02:10:19;53.50;;;50.60;;
66189;SDS011;52992;52.084;5.412;2023-05-07T02:12:46;53.60;;;50.60;;
66189;SDS011;52992;52.084;5.412;2023-05-07T02:15:12;51.40;;;48.47;;
66189;SDS011;52992;52.084;5.412;2023-05-07T02:17:39;52.80;;;49.90;;
66189;SDS011;52992;52.084;5.412;2023-05-07T02:20:35;51.30;;;48.60;;
66189;SDS011;52992;52.084;5.412;2023-05-07T02:23:02;52.80;;;49.90;;
66189;SDS011;52992;52.084;5.412;2023-05-07T02:25:29;53.37;;;50.47;;
66189;SDS011;52992;52.084;5.412;2023-05-07T02:27:57;52.37;;;49.57;;
66189;SDS011;52992;52.084;5.412;2023-05-07T02:30:38;53.10;;;50.30;;
66189;SDS011;52992;52.084;5.412;2023-05-07T02:33:07;52.07;;;49.17;;
66189;SDS011;52992;52.084;5.412;2023-05-07T02:35:35;48.40;;;45.50;;
66189;SDS011;52992;52.084;5.412;2023-05-07T02:38:02;45.53;;;42.93;;
66189;SDS011;52992;52.084;5.412;2023-05-07T02:40:30;43.27;;;40.57;;
66189;SDS011;52992;52.084;5.412;2023-05-07T02:43:00;43.17;;;40.63;;
66189;SDS011;52992;52.084;5.412;2023-05-07T02:45:27;43.77;;;41.27;;
66189;SDS011;52992;52.084;5.412;2023-05-07T02:47:54;44.87;;;42.37;;
66189;SDS011;52992;52.084;5.412;2023-05-07T02:50:21;46.63;;;43.83;;
66189;SDS011;52992;52.084;5.412;2023-05-07T02:52:48;47.33;;;44.63;;
66189;SDS011;52992;52.084;5.412;2023-05-07T02:55:16;47.37;;;44.67;;
66189;SDS011;52992;52.084;5.412;2023-05-07T02:57:43;50.20;;;47.20;;
66189;SDS011;52992;52.084;5.412;2023-05-07T03:00:20;49.03;;;46.13;;
66189;SDS011;52992;52.084;5.412;2023-05-07T03:03:01;50.50;;;47.63;;
66189;SDS011;52992;52.084;5.412;2023-05-07T03:05:28;58.30;;;55.10;;
66189;SDS011;52992;52.084;5.412;2023-05-07T03:07:54;61.90;;;58.57;;
66189;SDS011;52992;52.084;5.412;2023-05-07T03:10:21;60.87;;;57.47;;
66189;SDS011;52992;52.084;5.412;2023-05-07T03:12:48;61.93;;;58.53;;
66189;SDS011;52992;52.084;5.412;2023-05-07T03:15:16;58.70;;;55.50;;
66189;SDS011;52992;52.084;5.412;2023-05-07T03:17:43;58.43;;;55.23;;
66189;SDS011;52992;52.084;5.412;2023-05-07T03:20:10;58.57;;;55.47;;
66189;SDS011;52992;52.084;5.412;2023-05-07T03:22:39;58.37;;;55.13;;
66189;SDS011;52992;52.084;5.412;2023-05-07T03:25:06;57.83;;;54.73;;
66189;SDS011;52992;52.084;5.412;2023-05-07T03:27:34;56.33;;;53.23;;
66189;SDS011;52992;52.084;5.412;2023-05-07T03:30:01;55.77;;;52.67;;
66189;SDS011;52992;52.084;5.412;2023-05-07T03:32:28;56.47;;;53.33;;
66189;SDS011;52992;52.084;5.412;2023-05-07T03:34:55;55.60;;;52.50;;
66189;SDS011;52992;52.084;5.412;2023-05-07T03:37:22;52.83;;;49.57;;
66189;SDS011;52992;52.084;5.412;2023-05-07T03:39:49;53.17;;;50.23;;
66189;SDS011;52992;52.084;5.412;2023-05-07T03:42:16;54.70;;;51.70;;
66189;SDS011;52992;52.084;5.412;2023-05-07T03:44:44;54.53;;;51.40;;
66189;SDS011;52992;52.084;5.412;2023-05-07T03:47:11;53.93;;;50.77;;
66189;SDS011;52992;52.084;5.412;2023-05-07T03:49:39;49.67;;;46.97;;
66189;SDS011;52992;52.084;5.412;2023-05-07T03:52:07;48.70;;;45.90;;
66189;SDS011;52992;52.084;5.412;2023-05-07T03:54:34;48.80;;;45.87;;
66189;SDS011;52992;52.084;5.412;2023-05-07T03:57:01;48.73;;;45.93;;
66189;SDS011;52992;52.084;5.412;2023-05-07T03:59:28;48.60;;;45.53;;
66189;SDS011;52992;52.084;5.412;2023-05-07T04:01:55;48.67;;;45.93;;
66189;SDS011;52992;52.084;5.412;2023-05-07T04:04:24;48.67;;;45.80;;
66189;SDS011;52992;52.084;5.412;2023-05-07T04:06:51;51.77;;;48.57;;
66189;SDS011;52992;52.084;5.412;2023-05-07T04:09:20;52.63;;;49.53;;
66189;SDS011;52992;52.084;5.412;2023-05-07T04:11:47;51.10;;;48.20;;
66189;SDS011;52992;52.084;5.412;2023-05-07T04:14:14;51.33;;;48.23;;
66189;SDS011;52992;52.084;5.412;2023-05-07T04:16:41;49.43;;;46.43;;
66189;SDS011;52992;52.084;5.412;2023-05-07T04:19:08;49.27;;;46.27;;
66189;SDS011;52992;52.084;5.412;2023-05-07T04:21:36;47.63;;;44.93;;
66189;SDS011;52992;52.084;5.412;2023-05-07T04:24:03;50.43;;;47.27;;
66189;SDS011;52992;52.084;5.412;2023-05-07T04:26:31;50.93;;;47.73;;
66189;SDS011;52992;52.084;5.412;2023-05-07T04:28:58;51.23;;;48.30;;
66189;SDS011;52992;52.084;5.412;2023-05-07T04:31:30;53.17;;;50.17;;
66189;SDS011;52992;52.084;5.412;2023-05-07T04:33:58;52.97;;;49.63;;
66189;SDS011;52992;52.084;5.412;2023-05-07T04:36:25;53.50;;;50.40;;
66189;SDS011;52992;52.084;5.412;2023-05-07T04:38:59;52.33;;;49.13;;
66189;SDS011;52992;52.084;5.412;2023-05-07T04:41:26;53.07;;;49.97;;
66189;SDS011;52992;52.084;5.412;2023-05-07T04:43:54;51.77;;;48.77;;
66189;SDS011;52992;52.084;5.412;2023-05-07T04:46:23;52.97;;;49.77;;
66189;SDS011;52992;52.084;5.412;2023-05-07T04:48:52;51.93;;;48.77;;
66189;SDS011;52992;52.084;5.412;2023-05-07T04:51:19;53.07;;;49.63;;
66189;SDS011;52992;52.084;5.412;2023-05-07T04:53:47;53.20;;;50.20;;
66189;SDS011;52992;52.084;5.412;2023-05-07T04:56:14;52.07;;;48.13;;
66189;SDS011;52992;52.084;5.412;2023-05-07T04:58:43;51.37;;;48.10;;
66189;SDS011;52992;52.084;5.412;2023-05-07T05:01:11;51.13;;;47.80;;
66189;SDS011;52992;52.084;5.412;2023-05-07T05:03:38;51.87;;;48.63;;
66189;SDS011;52992;52.084;5.412;2023-05-07T05:06:07;52.50;;;49.40;;
66189;SDS011;52992;52.084;5.412;2023-05-07T05:08:34;52.07;;;48.70;;
66189;SDS011;52992;52.084;5.412;2023-05-07T05:11:02;53.50;;;50.00;;
66189;SDS011;52992;52.084;5.412;2023-05-07T05:13:31;53.30;;;50.00;;
66189;SDS011;52992;52.084;5.412;2023-05-07T05:16:01;53.30;;;49.93;;
66189;SDS011;52992;52.084;5.412;2023-05-07T05:18:30;54.60;;;50.77;;
66189;SDS011;52992;52.084;5.412;2023-05-07T05:20:59;55.27;;;51.63;;
66189;SDS011;52992;52.084;5.412;2023-05-07T05:23:26;52.70;;;49.47;;
66189;SDS011;52992;52.084;5.412;2023-05-07T05:25:57;54.23;;;50.83;;
66189;SDS011;52992;52.084;5.412;2023-05-07T05:28:27;53.07;;;49.67;;
66189;SDS011;52992;52.084;5.412;2023-05-07T05:30:55;52.90;;;49.60;;
66189;SDS011;52992;52.084;5.412;2023-05-07T05:33:24;54.90;;;51.37;;
66189;SDS011;52992;52.084;5.412;2023-05-07T05:35:50;54.17;;;50.73;;
66189;SDS011;52992;52.084;5.412;2023-05-07T05:38:17;54.20;;;50.83;;
66189;SDS011;52992;52.084;5.412;2023-05-07T05:40:45;54.20;;;50.70;;
66189;SDS011;52992;52.084;5.412;2023-05-07T05:43:13;54.77;;;51.47;;
66189;SDS011;52992;52.084;5.412;2023-05-07T05:45:40;55.70;;;52.07;;
66189;SDS011;52992;52.084;5.412;2023-05-07T05:48:07;55.27;;;51.70;;
66189;SDS011;52992;52.084;5.412;2023-05-07T05:50:35;54.40;;;50.90;;
66189;SDS011;52992;52.084;5.412;2023-05-07T05:53:03;55.87;;;52.37;;
66189;SDS011;52992;52.084;5.412;2023-05-07T05:55:30;56.33;;;52.40;;
66189;SDS011;52992;52.084;5.412;2023-05-07T05:58:01;57.13;;;53.40;;
66189;SDS011;52992;52.084;5.412;2023-05-07T06:00:32;57.17;;;53.60;;
66189;SDS011;52992;52.084;5.412;2023-05-07T06:03:02;55.50;;;51.80;;
66189;SDS011;52992;52.084;5.412;2023-05-07T06:05:29;54.83;;;51.43;;
66189;SDS011;52992;52.084;5.412;2023-05-07T06:07:56;53.90;;;50.43;;
66189;SDS011;52992;52.084;5.412;2023-05-07T06:10:25;54.47;;;50.93;;
66189;SDS011;52992;52.084;5.412;2023-05-07T06:12:54;54.27;;;50.73;;
66189;SDS011;52992;52.084;5.412;2023-05-07T06:15:21;51.57;;;48.40;;
66189;SDS011;52992;52.084;5.412;2023-05-07T06:17:48;53.20;;;49.73;;
66189;SDS011;52992;52.084;5.412;2023-05-07T06:20:15;54.83;;;51.20;;
66189;SDS011;52992;52.084;5.412;2023-05-07T06:22:43;59.07;;;55.07;;
66189;SDS011;52992;52.084;5.412;2023-05-07T06:25:11;57.90;;;54.10;;
66189;SDS011;52992;52.084;5.412;2023-05-07T06:27:39;56.27;;;52.70;;
66189;SDS011;52992;52.084;5.412;2023-05-07T06:30:07;59.63;;;55.57;;
66189;SDS011;52992;52.084;5.412;2023-05-07T06:32:36;58.53;;;54.50;;
66189;SDS011;52992;52.084;5.412;2023-05-07T06:35:03;57.77;;;53.80;;
66189;SDS011;52992;52.084;5.412;2023-05-07T06:37:30;59.50;;;55.77;;
66189;SDS011;52992;52.084;5.412;2023-05-07T06:40:01;59.17;;;55.27;;
66189;SDS011;52992;52.084;5.412;2023-05-07T06:42:30;60.20;;;56.23;;
66189;SDS011;52992;52.084;5.412;2023-05-07T06:45:11;59.87;;;56.17;;
66189;SDS011;52992;52.084;5.412;2023-05-07T06:47:38;59.20;;;55.17;;
66189;SDS011;52992;52.084;5.412;2023-05-07T06:50:05;60.30;;;56.00;;
66189;SDS011;52992;52.084;5.412;2023-05-07T06:52:33;61.93;;;57.80;;
66189;SDS011;52992;52.084;5.412;2023-05-07T06:55:01;61.93;;;57.80;;
66189;SDS011;52992;52.084;5.412;2023-05-07T06:57:27;65.00;;;60.67;;
66189;SDS011;52992;52.084;5.412;2023-05-07T06:59:54;65.77;;;61.20;;
66189;SDS011;52992;52.084;5.412;2023-05-07T07:02:22;63.13;;;58.73;;
66189;SDS011;52992;52.084;5.412;2023-05-07T07:04:49;65.00;;;60.70;;
66189;SDS011;52992;52.084;5.412;2023-05-07T07:07:16;66.40;;;61.97;;
66189;SDS011;52992;52.084;5.412;2023-05-07T07:09:45;64.83;;;60.40;;
66189;SDS011;52992;52.084;5.412;2023-05-07T07:12:15;63.23;;;58.87;;
66189;SDS011;52992;52.084;5.412;2023-05-07T07:14:42;64.10;;;59.40;;
66189;SDS011;52992;52.084;5.412;2023-05-07T07:17:09;64.27;;;59.80;;
66189;SDS011;52992;52.084;5.412;2023-05-07T07:19:36;70.73;;;66.13;;
66189;SDS011;52992;52.084;5.412;2023-05-07T07:22:04;80.17;;;75.17;;
66189;SDS011;52992;52.084;5.412;2023-05-07T07:24:31;95.60;;;89.73;;
66189;SDS011;52992;52.084;5.412;2023-05-07T07:27:02;93.13;;;87.27;;
66189;SDS011;52992;52.084;5.412;2023-05-07T07:29:31;64.53;;;60.03;;
66189;SDS011;52992;52.084;5.412;2023-05-07T07:31:58;59.70;;;55.53;;
66189;SDS011;52992;52.084;5.412;2023-05-07T07:34:26;61.40;;;57.00;;
66189;SDS011;52992;52.084;5.412;2023-05-07T07:36:53;61.53;;;57.20;;
66189;SDS011;52992;52.084;5.412;2023-05-07T07:39:20;60.23;;;56.07;;
66189;SDS011;52992;52.084;5.412;2023-05-07T07:41:50;60.33;;;55.93;;
66189;SDS011;52992;52.084;5.412;2023-05-07T07:44:18;62.90;;;58.73;;
66189;SDS011;52992;52.084;5.412;2023-05-07T07:46:50;65.10;;;60.57;;
66189;SDS011;52992;52.084;5.412;2023-05-07T07:49:19;68.53;;;63.87;;
66189;SDS011;52992;52.084;5.412;2023-05-07T07:51:46;62.93;;;58.60;;
66189;SDS011;52992;52.084;5.412;2023-05-07T07:54:13;60.80;;;56.60;;
66189;SDS011;52992;52.084;5.412;2023-05-07T07:56:41;56.37;;;52.57;;
66189;SDS011;52992;52.084;5.412;2023-05-07T07:59:09;71.33;;;67.00;;
66189;SDS011;52992;52.084;5.412;2023-05-07T08:01:38;80.07;;;75.23;;
66189;SDS011;52992;52.084;5.412;2023-05-07T08:04:06;81.63;;;76.93;;
66189;SDS011;52992;52.084;5.412;2023-05-07T08:06:37;89.03;;;84.23;;
66189;SDS011;52992;52.084;5.412;2023-05-07T08:09:05;79.57;;;75.07;;
66189;SDS011;52992;52.084;5.412;2023-05-07T08:11:32;79.23;;;74.73;;
66189;SDS011;52992;52.084;5.412;2023-05-07T08:14:00;75.83;;;71.47;;
66189;SDS011;52992;52.084;5.412;2023-05-07T08:16:27;79.50;;;74.80;;
66189;SDS011;52992;52.084;5.412;2023-05-07T08:18:57;78.63;;;73.93;;
66189;SDS011;52992;52.084;5.412;2023-05-07T08:21:24;67.00;;;62.70;;
66189;SDS011;52992;52.084;5.412;2023-05-07T08:23:52;62.17;;;58.10;;
66189;SDS011;52992;52.084;5.412;2023-05-07T08:26:20;58.73;;;54.77;;
66189;SDS011;52992;52.084;5.412;2023-05-07T08:28:47;62.03;;;57.47;;
66189;SDS011;52992;52.084;5.412;2023-05-07T08:31:14;59.03;;;55.10;;
66189;SDS011;52992;52.084;5.412;2023-05-07T08:33:43;60.37;;;55.90;;
66189;SDS011;52992;52.084;5.412;2023-05-07T08:36:10;61.80;;;57.83;;
66189;SDS011;52992;52.084;5.412;2023-05-07T08:38:37;65.90;;;61.40;;
66189;SDS011;52992;52.084;5.412;2023-05-07T08:41:04;64.97;;;60.67;;
66189;SDS011;52992;52.084;5.412;2023-05-07T08:43:34;63.30;;;58.80;;
66189;SDS011;52992;52.084;5.412;2023-05-07T08:46:04;63.50;;;59.33;;
66189;SDS011;52992;52.084;5.412;2023-05-07T08:48:38;68.40;;;63.73;;
66189;SDS011;52992;52.084;5.412;2023-05-07T08:51:14;66.23;;;61.73;;
66189;SDS011;52992;52.084;5.412;2023-05-07T08:53:44;67.30;;;62.60;;
66189;SDS011;52992;52.084;5.412;2023-05-07T08:56:16;67.93;;;62.97;;
66189;SDS011;52992;52.084;5.412;2023-05-07T08:58:47;61.10;;;57.10;;
66189;SDS011;52992;52.084;5.412;2023-05-07T09:01:15;61.77;;;57.20;;
66189;SDS011;52992;52.084;5.412;2023-05-07T09:03:46;63.93;;;59.53;;
66189;SDS011;52992;52.084;5.412;2023-05-07T09:06:14;59.23;;;55.37;;
66189;SDS011;52992;52.084;5.412;2023-05-07T09:08:44;63.03;;;59.03;;
66189;SDS011;52992;52.084;5.412;2023-05-07T09:11:19;63.83;;;59.80;;
66189;SDS011;52992;52.084;5.412;2023-05-07T09:13:54;72.33;;;67.57;;
66189;SDS011;52992;52.084;5.412;2023-05-07T09:16:23;76.47;;;71.40;;
66189;SDS011;52992;52.084;5.412;2023-05-07T09:18:52;75.33;;;70.53;;
66189;SDS011;52992;52.084;5.412;2023-05-07T09:21:21;77.10;;;71.63;;
66189;SDS011;52992;52.084;5.412;2023-05-07T09:23:52;75.97;;;70.90;;
66189;SDS011;52992;52.084;5.412;2023-05-07T09:26:26;78.10;;;72.67;;
66189;SDS011;52992;52.084;5.412;2023-05-07T09:28:54;76.17;;;70.27;;
66189;SDS011;52992;52.084;5.412;2023-05-07T09:31:21;73.37;;;68.10;;
66189;SDS011;52992;52.084;5.412;2023-05-07T09:33:52;72.83;;;67.63;;
66189;SDS011;52992;52.084;5.412;2023-05-07T09:36:19;70.37;;;64.87;;
66189;SDS011;52992;52.084;5.412;2023-05-07T09:38:47;72.83;;;67.60;;
66189;SDS011;52992;52.084;5.412;2023-05-07T09:41:17;73.53;;;68.23;;
66189;SDS011;52992;52.084;5.412;2023-05-07T09:43:56;75.03;;;70.07;;
66189;SDS011;52992;52.084;5.412;2023-05-07T09:46:30;74.23;;;68.97;;
66189;SDS011;52992;52.084;5.412;2023-05-07T09:49:03;71.27;;;66.17;;
66189;SDS011;52992;52.084;5.412;2023-05-07T09:51:36;67.93;;;62.83;;
66189;SDS011;52992;52.084;5.412;2023-05-07T09:54:09;76.83;;;70.93;;
66189;SDS011;52992;52.084;5.412;2023-05-07T09:56:40;76.90;;;71.30;;
66189;SDS011;52992;52.084;5.412;2023-05-07T09:59:10;73.10;;;67.70;;
66189;SDS011;52992;52.084;5.412;2023-05-07T10:01:40;72.67;;;67.47;;
66189;SDS011;52992;52.084;5.412;2023-05-07T10:04:12;82.33;;;76.47;;
66189;SDS011;52992;52.084;5.412;2023-05-07T10:06:42;83.57;;;77.53;;
66189;SDS011;52992;52.084;5.412;2023-05-07T10:09:10;87.90;;;81.63;;
66189;SDS011;52992;52.084;5.412;2023-05-07T10:11:39;63.87;;;59.27;;
66189;SDS011;52992;52.084;5.412;2023-05-07T10:14:06;74.97;;;69.70;;
66189;SDS011;52992;52.084;5.412;2023-05-07T10:16:35;75.33;;;70.17;;
66189;SDS011;52992;52.084;5.412;2023-05-07T10:19:08;68.93;;;63.60;;
66189;SDS011;52992;52.084;5.412;2023-05-07T10:21:48;74.73;;;69.60;;
66189;SDS011;52992;52.084;5.412;2023-05-07T10:24:26;77.97;;;72.53;;
66189;SDS011;52992;52.084;5.412;2023-05-07T10:26:59;62.10;;;57.30;;
66189;SDS011;52992;52.084;5.412;2023-05-07T10:32:39;67.67;;;62.73;;
66189;SDS011;52992;52.084;5.412;2023-05-07T10:35:21;69.53;;;64.53;;
66189;SDS011;52992;52.084;5.412;2023-05-07T10:37:51;73.97;;;69.00;;
66189;SDS011;52992;52.084;5.412;2023-05-07T10:40:20;74.27;;;69.27;;
66189;SDS011;52992;52.084;5.412;2023-05-07T10:42:53;86.93;;;80.87;;
66189;SDS011;52992;52.084;5.412;2023-05-07T10:45:22;95.17;;;88.73;;
66189;SDS011;52992;52.084;5.412;2023-05-07T10:51:20;130.33;;;122.80;;
66189;SDS011;52992;52.084;5.412;2023-05-07T10:56:49;62.53;;;57.67;;
66189;SDS011;52992;52.084;5.412;2023-05-07T11:02:04;57.87;;;53.93;;
66189;SDS011;52992;52.084;5.412;2023-05-07T11:04:43;62.20;;;57.93;;
66189;SDS011;52992;52.084;5.412;2023-05-07T11:07:26;46.43;;;42.93;;
66189;SDS011;52992;52.084;5.412;2023-05-07T11:10:06;57.00;;;52.77;;
66189;SDS011;52992;52.084;5.412;2023-05-07T11:12:47;62.63;;;58.50;;
66189;SDS011;52992;52.084;5.412;2023-05-07T11:18:27;67.70;;;62.57;;
66189;SDS011;52992;52.084;5.412;2023-05-07T11:21:41;69.57;;;65.07;;
66189;SDS011;52992;52.084;5.412;2023-05-07T11:24:31;48.80;;;45.10;;
66189;SDS011;52992;52.084;5.412;2023-05-07T11:27:06;53.63;;;49.83;;
66189;SDS011;52992;52.084;5.412;2023-05-07T11:29:33;83.17;;;78.03;;
66189;SDS011;52992;52.084;5.412;2023-05-07T11:32:08;66.13;;;61.67;;
66189;SDS011;52992;52.084;5.412;2023-05-07T11:34:43;66.83;;;62.47;;
66189;SDS011;52992;52.084;5.412;2023-05-07T11:37:11;48.03;;;44.33;;
66189;SDS011;52992;52.084;5.412;2023-05-07T11:42:33;50.60;;;46.90;;
66189;SDS011;52992;52.084;5.412;2023-05-07T11:45:01;51.07;;;47.67;;
66189;SDS011;52992;52.084;5.412;2023-05-07T11:47:32;56.83;;;53.30;;
66189;SDS011;52992;52.084;5.412;2023-05-07T11:50:04;62.50;;;58.30;;
66189;SDS011;52992;52.084;5.412;2023-05-07T11:52:34;56.83;;;52.93;;
66189;SDS011;52992;52.084;5.412;2023-05-07T11:55:02;63.80;;;59.77;;
66189;SDS011;52992;52.084;5.412;2023-05-07T11:57:32;75.50;;;70.53;;
66189;SDS011;52992;52.084;5.412;2023-05-07T12:00:00;96.50;;;91.07;;
66189;SDS011;52992;52.084;5.412;2023-05-07T12:02:37;61.90;;;57.53;;
66189;SDS011;52992;52.084;5.412;2023-05-07T12:05:05;61.90;;;58.07;;
66189;SDS011;52992;52.084;5.412;2023-05-07T12:07:33;54.20;;;50.30;;
66189;SDS011;52992;52.084;5.412;2023-05-07T12:10:05;45.40;;;42.53;;
66189;SDS011;52992;52.084;5.412;2023-05-07T12:12:39;46.67;;;43.50;;
66189;SDS011;52992;52.084;5.412;2023-05-07T12:15:08;42.90;;;40.30;;
66189;SDS011;52992;52.084;5.412;2023-05-07T12:17:36;43.43;;;40.93;;
66189;SDS011;52992;52.084;5.412;2023-05-07T12:20:04;46.20;;;43.57;;
66189;SDS011;52992;52.084;5.412;2023-05-07T12:22:32;45.57;;;42.97;;
66189;SDS011;52992;52.084;5.412;2023-05-07T12:24:59;49.03;;;46.23;;
66189;SDS011;52992;52.084;5.412;2023-05-07T12:27:26;47.13;;;44.33;;
66189;SDS011;52992;52.084;5.412;2023-05-07T12:29:53;50.83;;;47.67;;
66189;SDS011;52992;52.084;5.412;2023-05-07T12:32:20;46.63;;;43.57;;
66189;SDS011;52992;52.084;5.412;2023-05-07T12:34:51;43.67;;;41.23;;
66189;SDS011;52992;52.084;5.412;2023-05-07T12:37:25;46.27;;;43.57;;
66189;SDS011;52992;52.084;5.412;2023-05-07T12:40:06;47.03;;;44.43;;
66189;SDS011;52992;52.084;5.412;2023-05-07T12:42:37;39.23;;;37.13;;
66189;SDS011;52992;52.084;5.412;2023-05-07T12:45:12;28.23;;;26.63;;
66189;SDS011;52992;52.084;5.412;2023-05-07T12:47:45;40.50;;;37.93;;
66189;SDS011;52992;52.084;5.412;2023-05-07T12:50:16;34.80;;;32.57;;
66189;SDS011;52992;52.084;5.412;2023-05-07T12:52:46;33.53;;;31.53;;
66189;SDS011;52992;52.084;5.412;2023-05-07T12:55:14;34.40;;;32.30;;
66189;SDS011;52992;52.084;5.412;2023-05-07T12:57:43;34.60;;;32.47;;
66189;SDS011;52992;52.084;5.412;2023-05-07T13:00:13;32.63;;;30.67;;
66189;SDS011;52992;52.084;5.412;2023-05-07T13:02:41;32.60;;;30.73;;
66189;SDS011;52992;52.084;5.412;2023-05-07T13:05:11;34.90;;;32.80;;
66189;SDS011;52992;52.084;5.412;2023-05-07T13:07:38;36.03;;;34.00;;
66189;SDS011;52992;52.084;5.412;2023-05-07T13:10:07;29.67;;;27.77;;
66189;SDS011;52992;52.084;5.412;2023-05-07T13:12:34;25.63;;;23.93;;
66189;SDS011;52992;52.084;5.412;2023-05-07T13:15:01;41.27;;;38.67;;
66189;SDS011;52992;52.084;5.412;2023-05-07T13:17:28;39.10;;;36.83;;
66189;SDS011;52992;52.084;5.412;2023-05-07T13:19:58;40.47;;;38.37;;
66189;SDS011;52992;52.084;5.412;2023-05-07T13:22:25;35.80;;;33.70;;
66189;SDS011;52992;52.084;5.412;2023-05-07T13:24:51;42.80;;;40.17;;
66189;SDS011;52992;52.084;5.412;2023-05-07T13:27:18;46.60;;;43.90;;
66189;SDS011;52992;52.084;5.412;2023-05-07T13:29:46;38.40;;;36.23;;
66189;SDS011;52992;52.084;5.412;2023-05-07T13:32:13;44.53;;;41.83;;
66189;SDS011;52992;52.084;5.412;2023-05-07T13:34:40;48.73;;;45.77;;
66189;SDS011;52992;52.084;5.412;2023-05-07T13:37:07;55.30;;;52.00;;
66189;SDS011;52992;52.084;5.412;2023-05-07T13:39:36;57.50;;;54.00;;
66189;SDS011;52992;52.084;5.412;2023-05-07T13:42:03;58.20;;;54.53;;
66189;SDS011;52992;52.084;5.412;2023-05-07T13:44:30;55.53;;;52.33;;
66189;SDS011;52992;52.084;5.412;2023-05-07T13:46:57;59.07;;;55.37;;
66189;SDS011;52992;52.084;5.412;2023-05-07T13:49:24;58.67;;;54.80;;
66189;SDS011;52992;52.084;5.412;2023-05-07T13:51:51;55.03;;;51.60;;
66189;SDS011;52992;52.084;5.412;2023-05-07T13:54:18;54.90;;;51.03;;
66189;SDS011;52992;52.084;5.412;2023-05-07T13:56:45;54.73;;;51.03;;
66189;SDS011;52992;52.084;5.412;2023-05-07T13:59:11;51.23;;;47.60;;
66189;SDS011;52992;52.084;5.412;2023-05-07T14:01:40;49.60;;;46.03;;
66189;SDS011;52992;52.084;5.412;2023-05-07T14:04:07;51.67;;;48.17;;
66189;SDS011;52992;52.084;5.412;2023-05-07T14:06:34;55.07;;;51.17;;
66189;SDS011;52992;52.084;5.412;2023-05-07T14:09:01;53.37;;;49.67;;
66189;SDS011;52992;52.084;5.412;2023-05-07T14:11:28;53.13;;;49.27;;
66189;SDS011;52992;52.084;5.412;2023-05-07T14:13:55;51.93;;;47.93;;
66189;SDS011;52992;52.084;5.412;2023-05-07T14:16:23;52.57;;;48.40;;
66189;SDS011;52992;52.084;5.412;2023-05-07T14:18:50;52.27;;;48.63;;
66189;SDS011;52992;52.084;5.412;2023-05-07T14:21:17;55.83;;;51.80;;
66189;SDS011;52992;52.084;5.412;2023-05-07T14:23:43;54.10;;;50.10;;
66189;SDS011;52992;52.084;5.412;2023-05-07T14:26:10;52.17;;;48.67;;
66189;SDS011;52992;52.084;5.412;2023-05-07T14:28:37;52.97;;;49.47;;
66189;SDS011;52992;52.084;5.412;2023-05-07T14:31:05;50.80;;;47.30;;
66189;SDS011;52992;52.084;5.412;2023-05-07T14:33:33;50.17;;;46.90;;
66189;SDS011;52992;52.084;5.412;2023-05-07T14:36:00;50.20;;;46.70;;
66189;SDS011;52992;52.084;5.412;2023-05-07T14:38:27;47.80;;;44.50;;
66189;SDS011;52992;52.084;5.412;2023-05-07T14:40:53;50.57;;;47.17;;
66189;SDS011;52992;52.084;5.412;2023-05-07T14:43:22;54.80;;;51.00;;
66189;SDS011;52992;52.084;5.412;2023-05-07T14:45:50;54.53;;;50.47;;
66189;SDS011;52992;52.084;5.412;2023-05-07T14:48:18;50.70;;;47.00;;
66189;SDS011;52992;52.084;5.412;2023-05-07T14:50:47;52.20;;;48.80;;